KMIA/MIA METAR and TAF weather

Enter ICAO airport designator
Station Type Date Time Source
KMIA METAR 2019/02/16 01:53 UTC NOAA

KMIA 160153Z 24003KT 10SM FEW025 SCT055 SCT250 22/20 A2996 RMK AO2 SLP144 T02220200


Station Type Date Time Source
KMIA Decoded METAR 2019/02/16 01:53 UTC NOAA

MIAMI INTERNATIONAL AIRPORT , FL, United States (KMIA) 25-47N 080-19W 8M
Feb 15, 2019 - 08:53 PM EST / 2019.02.16 0153 UTC
Wind: from the WSW (240 degrees) at 3 MPH (3 KT):0
Visibility: 10 mile(s):0
Sky conditions: partly cloudy
Temperature: 72.0 F (22.2 C)
Dew Point: 68.0 F (20.0 C)
Relative Humidity: 87%
Pressure (altimeter): 29.96 in. Hg (1014 hPa)
ob: KMIA 160153Z 24003KT 10SM FEW025 SCT055 SCT250 22/20 A2996 RMK AO2 SLP144 T02220200
cycle: 2

Station Type Date Time Source
KMIA TAF 2019/02/15 22:10 UTC NOAA

TAF
AMD KMIA 152208Z 1522/1624 12006KT P6SM SCT035 SCT060 OVC250
FM160100 VRB03KT P6SM SCT250
FM161600 24010KT P6SM SCT035


Example: see airport list